createdAt,value
2022-09-15T00:00:28.264Z,6.85
2022-09-15T00:02:55.476Z,4.78
2022-09-15T00:05:22.262Z,6.60
2022-09-15T00:07:51.664Z,5.85
2022-09-15T00:10:18.289Z,6.38
2022-09-15T00:12:44.903Z,7.05
2022-09-15T00:15:14.754Z,7.22
2022-09-15T00:17:42.897Z,4.57
2022-09-15T00:20:10.609Z,5.38
2022-09-15T00:22:37.261Z,5.63
2022-09-15T00:25:04.533Z,6.10
2022-09-15T00:27:32.308Z,4.35
2022-09-15T00:29:58.834Z,4.03
2022-09-15T00:32:26.142Z,7.07
2022-09-15T00:34:53.478Z,4.18
2022-09-15T00:37:20.157Z,3.95
2022-09-15T00:39:46.752Z,5.40
2022-09-15T00:42:16.161Z,4.55
2022-09-15T00:44:50.099Z,5.40
2022-09-15T00:47:20.210Z,4.00
2022-09-15T00:49:51.971Z,6.30
2022-09-15T00:52:27.728Z,3.92
2022-09-15T00:55:03.113Z,6.22
2022-09-15T00:57:43.947Z,7.90
2022-09-15T01:00:15.191Z,5.13
2022-09-15T01:02:44.365Z,5.70
2022-09-15T01:05:15.737Z,5.68
2022-09-15T01:07:53.483Z,9.10
2022-09-15T01:10:32.472Z,7.28
2022-09-15T01:13:02.652Z,6.63
2022-09-15T01:15:48.084Z,8.18
2022-09-15T01:18:25.986Z,6.55
2022-09-15T01:21:47.080Z,6.75
2022-09-15T01:24:42.483Z,6.28
2022-09-15T01:27:42.406Z,8.13
2022-09-15T01:30:19.795Z,9.48
2022-09-15T01:33:20.779Z,10.18
2022-09-15T01:36:03.763Z,13.10
2022-09-15T01:38:37.748Z,8.15
2022-09-15T01:41:37.691Z,7.85
2022-09-15T01:44:10.472Z,9.63
2022-09-15T01:46:47.045Z,10.25
2022-09-15T01:49:19.402Z,8.40
2022-09-15T01:51:49.044Z,11.57
2022-09-15T01:54:19.474Z,10.13
2022-09-15T01:56:46.431Z,9.93
2022-09-15T01:59:13.054Z,10.07
2022-09-15T02:01:51.018Z,13.27
2022-09-15T02:04:27.776Z,10.35
2022-09-15T02:07:25.971Z,13.13
2022-09-15T02:10:05.853Z,14.45
2022-09-15T02:12:51.780Z,12.60
2022-09-15T02:15:29.062Z,13.55
2022-09-15T02:17:59.199Z,10.48
2022-09-15T02:20:38.987Z,10.32
2022-09-15T02:23:13.240Z,14.52
2022-09-15T02:25:48.051Z,11.90
2022-09-15T02:28:18.854Z,12.88
2022-09-15T02:30:47.456Z,16.70
2022-09-15T02:33:19.831Z,14.50
2022-09-15T02:35:47.454Z,12.23
2022-09-15T02:38:15.069Z,11.05
2022-09-15T02:40:44.405Z,15.35
2022-09-15T02:43:13.794Z,12.68
2022-09-15T02:45:40.744Z,12.68
2022-09-15T02:48:09.594Z,17.70
2022-09-15T02:50:37.864Z,14.63
2022-09-15T02:53:04.856Z,9.80
2022-09-15T02:55:31.373Z,11.73
2022-09-15T02:57:58.896Z,10.77
2022-09-15T03:00:28.285Z,12.35
2022-09-15T03:02:56.108Z,15.32
2022-09-15T03:05:29.568Z,8.55
2022-09-15T03:07:56.849Z,12.40
2022-09-15T03:10:25.405Z,10.60
2022-09-15T03:12:53.733Z,15.85
2022-09-15T03:15:23.407Z,11.18
2022-09-15T03:17:50.610Z,15.27
2022-09-15T03:20:20.448Z,13.05
2022-09-15T03:22:47.776Z,14.95
2022-09-15T03:25:14.479Z,14.43
2022-09-15T03:27:40.925Z,17.85
2022-09-15T03:30:08.341Z,14.60
2022-09-15T03:32:34.925Z,15.32
2022-09-15T03:35:01.857Z,23.17
2022-09-15T03:37:28.545Z,15.73
2022-09-15T03:39:55.771Z,18.27
2022-09-15T03:42:22.277Z,15.82
2022-09-15T03:44:49.089Z,19.48
2022-09-15T03:47:15.698Z,23.80
2022-09-15T03:49:42.354Z,18.85
2022-09-15T03:52:08.813Z,19.05
2022-09-15T03:54:35.527Z,17.83
2022-09-15T03:57:02.624Z,20.25
2022-09-15T03:59:29.050Z,18.58
2022-09-15T04:01:55.594Z,18.17
2022-09-15T04:04:22.145Z,22.50
2022-09-15T04:06:48.576Z,22.08
2022-09-15T04:09:15.182Z,24.52
2022-09-15T04:11:44.137Z,22.73
2022-09-15T04:14:10.655Z,23.88
2022-09-15T04:16:37.167Z,24.60
2022-09-15T04:19:03.742Z,22.40
2022-09-15T04:21:31.679Z,23.80
2022-09-15T04:23:58.216Z,23.05
2022-09-15T04:26:29.885Z,22.50
2022-09-15T04:28:59.524Z,23.52
2022-09-15T04:31:28.320Z,25.73
2022-09-15T04:33:55.853Z,24.50
2022-09-15T04:36:25.282Z,27.67
2022-09-15T04:38:52.254Z,25.30
2022-09-15T04:41:19.856Z,22.48
2022-09-15T04:43:46.764Z,24.77
2022-09-15T04:46:15.228Z,25.50
2022-09-15T04:48:42.272Z,24.80
2022-09-15T04:51:12.636Z,27.55
2022-09-15T04:53:39.346Z,23.20
2022-09-15T04:56:11.400Z,27.48
2022-09-15T04:58:39.921Z,27.50
2022-09-15T05:01:11.280Z,27.25
2022-09-15T05:03:38.510Z,29.38
2022-09-15T05:06:07.497Z,30.40
2022-09-15T05:08:33.960Z,21.45
2022-09-15T05:11:02.772Z,27.23
2022-09-15T05:13:29.339Z,22.02
2022-09-15T05:15:55.995Z,26.75
2022-09-15T05:18:22.526Z,23.70
2022-09-15T05:20:49.007Z,25.65
2022-09-15T05:23:15.494Z,25.10
2022-09-15T05:25:41.972Z,26.65
2022-09-15T05:28:08.394Z,29.80
2022-09-15T05:30:39.631Z,20.05
2022-09-15T05:33:07.083Z,22.30
2022-09-15T05:35:33.517Z,20.75
2022-09-15T05:37:59.982Z,25.83
2022-09-15T05:40:26.640Z,26.10
2022-09-15T05:42:53.101Z,21.92
2022-09-15T05:45:19.530Z,21.95
2022-09-15T05:47:45.975Z,19.08
2022-09-15T05:50:12.488Z,20.73
2022-09-15T05:52:38.997Z,23.95
2022-09-15T05:55:05.596Z,20.67
2022-09-15T05:57:32.233Z,18.10
2022-09-15T05:59:58.709Z,23.83
2022-09-15T06:02:25.336Z,18.98
2022-09-15T06:04:51.814Z,22.65
2022-09-15T06:07:18.272Z,22.80
2022-09-15T06:09:45.243Z,20.30
2022-09-15T06:12:11.726Z,20.05
2022-09-15T06:14:38.183Z,18.80
2022-09-15T06:17:04.758Z,19.23
2022-09-15T06:19:31.412Z,23.90
2022-09-15T06:21:57.901Z,20.45
2022-09-15T06:24:24.336Z,20.05
2022-09-15T06:26:50.896Z,16.17
2022-09-15T06:29:17.392Z,19.85
2022-09-15T06:31:43.981Z,20.35
2022-09-15T06:34:11.677Z,18.52
2022-09-15T06:36:39.057Z,14.50
2022-09-15T06:39:05.707Z,14.43
2022-09-15T06:41:52.480Z,19.42
2022-09-15T06:44:19.787Z,12.82
2022-09-15T06:46:46.322Z,11.68
2022-09-15T06:49:12.831Z,13.52
2022-09-15T06:51:39.272Z,11.25
2022-09-15T06:54:06.467Z,10.40
2022-09-15T06:56:37.210Z,15.55
2022-09-15T06:59:04.781Z,13.02
2022-09-15T07:01:32.341Z,9.07
2022-09-15T07:04:01.270Z,7.63
2022-09-15T07:06:29.232Z,9.07
2022-09-15T07:08:56.635Z,6.82
2022-09-15T07:11:23.120Z,11.40
2022-09-15T07:13:49.926Z,5.60
2022-09-15T07:16:18.913Z,12.82
2022-09-15T07:18:46.296Z,6.38
2022-09-15T07:21:15.053Z,3.95
2022-09-15T07:23:42.611Z,6.18
2022-09-15T07:26:26.984Z,6.95
2022-09-15T07:28:59.936Z,4.90
2022-09-15T07:31:29.549Z,7.20
2022-09-15T07:33:56.051Z,6.00
2022-09-15T07:36:22.607Z,3.85
2022-09-15T07:38:50.001Z,5.72
2022-09-15T07:41:19.186Z,5.57
2022-09-15T07:43:47.658Z,5.80
2022-09-15T07:46:15.421Z,4.43
2022-09-15T07:48:45.674Z,5.43
2022-09-15T07:51:12.404Z,11.05
2022-09-15T07:53:39.009Z,4.93
2022-09-15T07:56:05.947Z,4.05
2022-09-15T07:58:33.684Z,6.75
2022-09-15T08:01:05.858Z,9.80
2022-09-15T08:03:32.601Z,9.02
2022-09-15T08:06:00.951Z,6.57
2022-09-15T08:08:27.864Z,6.88
2022-09-15T08:10:54.645Z,6.70
2022-09-15T08:13:21.151Z,4.55
2022-09-15T08:15:48.234Z,3.53
2022-09-15T08:18:15.615Z,3.97
2022-09-15T08:20:42.656Z,6.00
2022-09-15T08:23:11.052Z,3.70
2022-09-15T08:25:40.537Z,4.10
2022-09-15T08:28:07.541Z,4.20
2022-09-15T08:30:34.184Z,6.45
2022-09-15T08:33:00.744Z,3.50
2022-09-15T08:35:27.512Z,2.70
2022-09-15T08:37:55.164Z,5.82
2022-09-15T08:40:32.735Z,5.00
2022-09-15T08:43:08.733Z,4.80
2022-09-15T08:45:47.283Z,3.90
2022-09-15T08:48:17.053Z,4.70
2022-09-15T08:50:49.455Z,4.75
2022-09-15T08:53:29.402Z,8.55
2022-09-15T08:55:59.141Z,7.40
2022-09-15T08:58:31.903Z,4.10
2022-09-15T09:01:12.112Z,7.07
2022-09-15T09:03:59.212Z,4.68
2022-09-15T09:06:44.534Z,4.53
2022-09-15T09:09:23.122Z,4.35
2022-09-15T09:12:20.964Z,6.43
2022-09-15T09:15:04.355Z,5.40
2022-09-15T09:18:13.529Z,5.95
2022-09-15T09:20:51.604Z,3.83
2022-09-15T09:23:21.890Z,2.88
2022-09-15T09:25:49.738Z,2.85
2022-09-15T09:28:31.480Z,2.92
2022-09-15T09:31:02.944Z,5.28
2022-09-15T09:33:47.343Z,4.88
2022-09-15T09:36:14.981Z,1.70
2022-09-15T09:38:44.469Z,3.58
2022-09-15T09:41:19.712Z,2.67
2022-09-15T09:43:48.845Z,5.03
2022-09-15T09:46:18.492Z,2.58
2022-09-15T09:49:02.400Z,9.20
2022-09-15T09:51:31.843Z,2.92
2022-09-15T09:54:06.196Z,1.52
2022-09-15T09:56:33.428Z,2.70
2022-09-15T09:59:02.929Z,2.38
2022-09-15T10:01:30.034Z,1.50
2022-09-15T10:04:13.381Z,2.83
2022-09-15T10:06:40.816Z,2.35
2022-09-15T10:09:16.592Z,1.45
2022-09-15T10:11:49.427Z,1.42
2022-09-15T10:14:30.170Z,2.10
2022-09-15T10:17:08.834Z,0.70
2022-09-15T10:19:56.638Z,3.00
2022-09-15T10:22:31.331Z,1.73
2022-09-15T10:25:04.301Z,1.02
2022-09-15T10:27:36.007Z,3.17
2022-09-15T10:30:14.704Z,2.40
2022-09-15T10:32:42.752Z,1.40
2022-09-15T10:35:18.689Z,1.63
2022-09-15T10:38:10.079Z,3.25
2022-09-15T10:41:06.671Z,2.75
2022-09-15T10:43:46.471Z,1.17
2022-09-15T10:46:25.525Z,2.10
2022-09-15T10:49:24.771Z,3.35
2022-09-15T10:52:10.468Z,1.33
2022-09-15T10:55:05.026Z,1.95
2022-09-15T10:57:52.054Z,3.58
2022-09-15T11:00:24.501Z,1.65
2022-09-15T11:03:43.595Z,1.38
2022-09-15T11:06:29.659Z,1.67
2022-09-15T11:09:13.521Z,3.13
2022-09-15T11:11:49.293Z,0.68
2022-09-15T11:14:40.477Z,1.92
2022-09-15T11:17:20.430Z,2.97
2022-09-15T11:20:21.039Z,0.40
2022-09-15T11:23:04.119Z,6.30
2022-09-15T11:25:35.632Z,2.25
2022-09-15T11:28:17.402Z,1.33
2022-09-15T11:31:22.435Z,2.25
2022-09-15T11:33:51.775Z,1.02
2022-09-15T11:36:24.904Z,0.55
2022-09-15T11:39:03.404Z,1.90
2022-09-15T11:41:34.144Z,1.45
2022-09-15T11:44:30.233Z,1.77
2022-09-15T11:47:07.587Z,0.63
2022-09-15T11:50:12.893Z,1.58
2022-09-15T11:52:54.358Z,0.50
2022-09-15T11:55:30.897Z,0.93
2022-09-15T11:58:08.945Z,0.98
2022-09-15T12:00:43.261Z,1.88
2022-09-15T12:03:50.066Z,2.22
2022-09-15T12:06:47.430Z,1.55
2022-09-15T12:09:16.979Z,0.85
2022-09-15T12:11:47.088Z,1.08
2022-09-15T12:14:27.284Z,1.13
2022-09-15T12:16:54.488Z,1.75
2022-09-15T12:19:36.524Z,4.60
2022-09-15T12:22:29.027Z,1.58
2022-09-15T12:25:30.751Z,0.85
2022-09-15T12:28:27.127Z,1.70
2022-09-15T12:31:24.859Z,0.77
2022-09-15T12:34:26.359Z,5.88
2022-09-15T12:36:55.278Z,1.05
2022-09-15T12:39:29.996Z,1.40
2022-09-15T12:42:08.124Z,1.25
2022-09-15T12:44:43.081Z,1.38
2022-09-15T12:47:24.252Z,1.63
2022-09-15T12:49:53.617Z,1.15
2022-09-15T12:52:23.466Z,0.65
2022-09-15T12:54:58.476Z,4.05
2022-09-15T12:57:35.001Z,1.27
2022-09-15T13:00:42.396Z,1.20
2022-09-15T13:03:27.453Z,0.63
2022-09-15T13:06:12.847Z,4.07
2022-09-15T13:08:44.836Z,2.22
2022-09-15T13:11:15.603Z,3.50
2022-09-15T13:13:57.956Z,0.80
2022-09-15T13:16:33.280Z,1.83
2022-09-15T13:19:15.345Z,3.13
2022-09-15T13:21:47.883Z,1.30
2022-09-15T13:24:22.167Z,1.50
2022-09-15T13:26:53.115Z,1.10
2022-09-15T13:29:22.269Z,2.20
2022-09-15T13:32:10.015Z,1.85
2022-09-15T13:35:20.716Z,2.17
2022-09-15T13:38:20.043Z,1.45
2022-09-15T13:41:16.460Z,1.13
2022-09-15T13:43:45.823Z,3.33
2022-09-15T13:46:41.737Z,1.65
2022-09-15T13:49:46.891Z,2.95
2022-09-15T13:52:19.360Z,1.58
2022-09-15T13:55:26.385Z,4.38
2022-09-15T14:00:55.046Z,4.38
2022-09-15T14:03:46.164Z,1.52
2022-09-15T14:06:16.877Z,1.50
2022-09-15T14:08:48.876Z,0.60
2022-09-15T14:11:21.450Z,1.70
2022-09-15T14:13:50.891Z,0.63
2022-09-15T14:16:23.790Z,2.83
2022-09-15T14:18:53.024Z,0.88
2022-09-15T14:21:20.889Z,0.73
2022-09-15T14:23:55.613Z,3.25
2022-09-15T14:26:24.680Z,2.10
2022-09-15T14:29:02.378Z,1.23
2022-09-15T14:31:48.886Z,1.00
2022-09-15T14:34:20.698Z,2.20
2022-09-15T14:37:01.110Z,2.22
2022-09-15T14:39:28.065Z,1.13
2022-09-15T14:41:54.875Z,0.82
2022-09-15T14:47:28.021Z,0.98
2022-09-15T14:50:09.820Z,2.38
2022-09-15T14:53:03.132Z,0.82
2022-09-15T14:55:52.011Z,4.18
2022-09-15T14:58:42.715Z,0.65
2022-09-15T15:01:22.954Z,0.50
2022-09-15T15:04:12.029Z,1.38
2022-09-15T15:07:08.209Z,0.82
2022-09-15T15:09:48.808Z,0.43
2022-09-15T15:12:43.347Z,0.30
2022-09-15T15:15:16.049Z,2.30
2022-09-15T15:17:46.614Z,0.93
2022-09-15T15:20:19.511Z,1.15
2022-09-15T15:22:46.867Z,0.90
2022-09-15T15:25:28.857Z,0.63
2022-09-15T15:28:00.191Z,0.20
2022-09-15T15:30:32.482Z,2.08
2022-09-15T15:33:27.406Z,0.68
2022-09-15T15:36:08.743Z,0.52
2022-09-15T15:38:41.724Z,0.65
2022-09-15T15:41:20.033Z,0.40
2022-09-15T15:43:56.095Z,3.55
2022-09-15T15:46:49.880Z,1.80
2022-09-15T15:49:17.277Z,1.40
2022-09-15T15:51:44.636Z,1.75
2022-09-15T15:54:11.645Z,1.60
2022-09-15T15:56:38.848Z,0.80
2022-09-15T15:59:05.856Z,0.73
2022-09-15T16:01:33.248Z,0.55
2022-09-15T16:03:59.864Z,1.25
2022-09-15T16:06:26.703Z,0.35
2022-09-15T16:08:53.613Z,2.15
2022-09-15T16:11:20.919Z,3.25
2022-09-15T16:13:48.321Z,0.90
2022-09-15T16:16:20.843Z,0.40
2022-09-15T16:18:48.241Z,0.52
2022-09-15T16:21:18.589Z,1.08
2022-09-15T16:23:46.171Z,1.10
2022-09-15T16:26:19.789Z,0.95
2022-09-15T16:28:46.357Z,0.50
2022-09-15T16:31:14.460Z,3.90
2022-09-15T16:33:42.307Z,0.75
2022-09-15T16:36:14.038Z,0.47
2022-09-15T16:38:41.428Z,1.10
2022-09-15T16:41:25.498Z,1.38
2022-09-15T16:43:53.289Z,0.45
2022-09-15T16:46:20.520Z,0.20
2022-09-15T16:48:47.462Z,0.55
2022-09-15T16:51:26.689Z,0.63
2022-09-15T16:53:53.876Z,0.57
2022-09-15T16:56:20.410Z,1.02
2022-09-15T16:58:46.994Z,0.32
2022-09-15T17:01:18.501Z,2.85
2022-09-15T17:03:45.276Z,1.25
2022-09-15T17:06:17.640Z,0.50
2022-09-15T17:08:44.577Z,0.90
2022-09-15T17:11:17.290Z,0.93
2022-09-15T17:13:44.628Z,1.38
2022-09-15T17:16:14.962Z,3.28
2022-09-15T17:18:41.486Z,1.15
2022-09-15T17:21:11.115Z,1.58
2022-09-15T17:23:40.190Z,1.23
2022-09-15T17:26:11.679Z,1.55
2022-09-15T17:28:38.415Z,1.05
2022-09-15T17:31:11.814Z,1.70
2022-09-15T17:33:38.594Z,1.73
2022-09-15T17:36:05.504Z,1.92
2022-09-15T17:38:32.332Z,1.10
2022-09-15T17:40:59.001Z,1.15
2022-09-15T17:43:28.590Z,1.05
2022-09-15T17:45:57.007Z,1.17
2022-09-15T17:48:24.371Z,0.65
2022-09-15T17:50:51.550Z,1.15
2022-09-15T17:53:24.072Z,1.63
2022-09-15T17:55:51.225Z,0.65
2022-09-15T17:58:18.128Z,1.35
2022-09-15T18:00:45.879Z,1.20
2022-09-15T18:03:23.929Z,0.93
2022-09-15T18:05:51.791Z,2.17
2022-09-15T18:08:18.662Z,3.55
2022-09-15T18:10:45.311Z,2.38
2022-09-15T18:13:20.449Z,2.22
2022-09-15T18:15:48.887Z,0.57
2022-09-15T18:18:18.903Z,0.85
2022-09-15T18:20:45.979Z,0.88
2022-09-15T18:23:24.023Z,1.05
2022-09-15T18:25:51.126Z,1.58
2022-09-15T18:28:19.009Z,0.95
2022-09-15T18:30:48.549Z,0.90
2022-09-15T18:33:20.721Z,0.40
2022-09-15T18:35:54.137Z,1.80
2022-09-15T18:38:21.984Z,1.55
2022-09-15T18:40:55.160Z,1.30
2022-09-15T18:43:23.558Z,0.60
2022-09-15T18:45:50.338Z,0.47
2022-09-15T18:48:20.094Z,1.45
2022-09-15T18:50:46.730Z,1.25
2022-09-15T18:53:14.025Z,1.77
2022-09-15T18:55:42.340Z,0.95
2022-09-15T18:58:09.802Z,2.50
2022-09-15T19:00:36.368Z,0.60
2022-09-15T19:03:05.545Z,0.60
2022-09-15T19:05:32.506Z,0.90
2022-09-15T19:07:59.132Z,2.35
2022-09-15T19:10:26.874Z,1.15
2022-09-15T19:12:54.254Z,1.38
2022-09-15T19:15:23.592Z,0.35
2022-09-15T19:17:50.740Z,0.50
2022-09-15T19:20:17.951Z,0.70
2022-09-15T19:22:44.435Z,1.60
2022-09-15T19:25:11.941Z,0.68
2022-09-15T19:27:39.573Z,0.30
2022-09-15T19:30:09.792Z,0.55
2022-09-15T19:32:37.115Z,1.13
2022-09-15T19:35:04.036Z,0.50
2022-09-15T19:37:30.725Z,0.57
2022-09-15T19:39:57.278Z,1.00
2022-09-15T19:42:23.984Z,0.55
2022-09-15T19:44:50.584Z,0.50
2022-09-15T19:47:17.170Z,0.32
2022-09-15T19:49:43.796Z,1.05
2022-09-15T19:52:10.537Z,0.40
2022-09-15T19:54:37.192Z,2.30
2022-09-15T19:57:04.034Z,0.30
2022-09-15T19:59:31.886Z,0.30
2022-09-15T20:02:00.594Z,0.65
2022-09-15T20:04:28.398Z,2.83
2022-09-15T20:06:54.969Z,0.20
2022-09-15T20:09:21.588Z,1.48
2022-09-15T20:11:48.254Z,0.80
2022-09-15T20:14:15.000Z,1.20
2022-09-15T20:16:41.700Z,0.70
2022-09-15T20:19:09.258Z,0.60
2022-09-15T20:21:53.247Z,1.92
2022-09-15T20:24:20.640Z,0.57
2022-09-15T20:26:47.455Z,1.52
2022-09-15T20:29:14.396Z,6.15
2022-09-15T20:31:41.325Z,1.67
2022-09-15T20:34:07.826Z,0.68
2022-09-15T20:36:36.793Z,2.85
2022-09-15T20:39:06.280Z,2.78
2022-09-15T20:41:32.915Z,2.05
2022-09-15T20:44:00.193Z,2.38
2022-09-15T20:46:29.201Z,3.42
2022-09-15T20:48:55.671Z,0.55
2022-09-15T20:51:24.257Z,1.27
2022-09-15T20:53:52.995Z,1.13
2022-09-15T20:56:24.612Z,3.85
2022-09-15T20:58:52.357Z,0.93
2022-09-15T21:01:22.599Z,5.85
2022-09-15T21:03:49.468Z,2.35
2022-09-15T21:06:21.360Z,3.30
2022-09-15T21:08:48.962Z,1.98
2022-09-15T21:11:16.887Z,1.15
2022-09-15T21:13:44.067Z,0.73
2022-09-15T21:16:15.182Z,1.73
2022-09-15T21:18:43.114Z,1.55
2022-09-15T21:21:17.819Z,2.15
2022-09-15T21:23:55.661Z,1.05
2022-09-15T21:26:27.268Z,1.90
2022-09-15T21:28:54.995Z,1.67
2022-09-15T21:31:27.952Z,1.95
2022-09-15T21:33:55.752Z,2.65
2022-09-15T21:36:28.246Z,1.80
2022-09-15T21:38:56.896Z,1.70
2022-09-15T21:41:26.193Z,1.40
2022-09-15T21:43:54.902Z,6.60
2022-09-15T21:46:24.006Z,2.95
2022-09-15T21:48:51.744Z,1.10
2022-09-15T21:51:25.009Z,3.05
2022-09-15T21:53:56.729Z,4.47
2022-09-15T21:56:24.277Z,1.50
2022-09-15T21:58:50.824Z,1.55
2022-09-15T22:01:29.218Z,1.08
2022-09-15T22:04:01.468Z,1.08
2022-09-15T22:06:31.463Z,3.42
2022-09-15T22:09:03.583Z,2.97
2022-09-15T22:11:30.343Z,2.72
2022-09-15T22:13:57.423Z,1.27
2022-09-15T22:16:25.151Z,5.72
2022-09-15T22:18:52.019Z,1.60
2022-09-15T22:21:24.076Z,2.30
2022-09-15T22:23:51.881Z,3.47
2022-09-15T22:26:23.683Z,2.22
2022-09-15T22:28:50.294Z,1.40
2022-09-15T22:31:19.175Z,1.80
2022-09-15T22:33:46.469Z,1.20
2022-09-15T22:36:15.253Z,1.98
2022-09-15T22:38:42.601Z,2.58
2022-09-15T22:41:12.086Z,0.98
2022-09-15T22:43:40.440Z,2.80
2022-09-15T22:46:08.181Z,1.10
2022-09-15T22:48:38.496Z,1.60
2022-09-15T22:51:07.809Z,1.15
2022-09-15T22:53:34.938Z,1.80
2022-09-15T22:56:19.655Z,2.22
2022-09-15T22:58:48.388Z,1.08
2022-09-15T23:01:23.742Z,5.88
2022-09-15T23:03:55.703Z,3.83
2022-09-15T23:06:23.831Z,3.83
2022-09-15T23:08:55.504Z,1.77
2022-09-15T23:11:22.980Z,0.50
2022-09-15T23:13:49.561Z,0.85
2022-09-15T23:16:16.975Z,1.77
2022-09-15T23:18:43.650Z,3.20
2022-09-15T23:21:12.318Z,0.88
2022-09-15T23:23:40.240Z,1.27
2022-09-15T23:26:09.866Z,3.78
2022-09-15T23:28:37.282Z,2.13
2022-09-15T23:31:04.152Z,0.88
2022-09-15T23:33:34.356Z,1.58
2022-09-15T23:36:02.651Z,1.40
2022-09-15T23:38:29.555Z,2.75
2022-09-15T23:40:56.088Z,1.38
2022-09-15T23:43:22.587Z,2.13
2022-09-15T23:45:51.045Z,2.72
2022-09-15T23:48:17.494Z,1.20
2022-09-15T23:50:43.953Z,1.65
2022-09-15T23:53:10.519Z,2.47
2022-09-15T23:55:37.375Z,2.47
2022-09-15T23:58:04.878Z,2.22
